createdAt,value
2023-03-30T00:01:04.478Z,98485.35
2023-03-30T00:02:38.749Z,98485.31
2023-03-30T00:04:12.714Z,98483.59
2023-03-30T00:06:05.585Z,98479.71
2023-03-30T00:07:47.379Z,98484.09
2023-03-30T00:09:30.713Z,98484.17
2023-03-30T00:10:55.839Z,98482.89
2023-03-30T00:12:32.284Z,98480.13
2023-03-30T00:14:17.835Z,98477.65
2023-03-30T00:15:51.554Z,98479.27
2023-03-30T00:17:13.048Z,98478.80
2023-03-30T00:19:07.049Z,98474.05
2023-03-30T00:20:29.000Z,98475.16
2023-03-30T00:22:13.892Z,98474.96
2023-03-30T00:23:56.023Z,98475.03
2023-03-30T00:25:29.380Z,98476.06
2023-03-30T00:27:03.228Z,98472.79
2023-03-30T00:28:38.815Z,98470.15
2023-03-30T00:30:24.025Z,98466.59
2023-03-30T00:32:10.665Z,98468.27
2023-03-30T00:33:49.743Z,98469.20
2023-03-30T00:35:24.336Z,98468.55
2023-03-30T00:37:05.354Z,98463.60
2023-03-30T00:38:29.395Z,98463.33
2023-03-30T00:39:53.107Z,98457.22
2023-03-30T00:41:43.011Z,98459.15
2023-03-30T00:43:16.308Z,98454.80
2023-03-30T00:44:47.189Z,98451.89
2023-03-30T00:46:40.551Z,98450.86
2023-03-30T00:48:21.745Z,98447.13
2023-03-30T00:49:55.326Z,98443.27
2023-03-30T00:51:30.948Z,98439.11
2023-03-30T00:53:17.974Z,98440.92
2023-03-30T00:54:58.634Z,98439.21
2023-03-30T00:56:40.121Z,98441.58
2023-03-30T00:58:25.187Z,98439.68
2023-03-30T01:00:01.718Z,98440.92
2023-03-30T01:01:39.060Z,98440.03
2023-03-30T01:03:24.633Z,98436.11
2023-03-30T01:06:58.014Z,98437.37
2023-03-30T01:08:45.521Z,98436.94
2023-03-30T01:10:18.734Z,98437.21
2023-03-30T01:11:40.444Z,98431.40
2023-03-30T01:13:17.011Z,98427.82
2023-03-30T01:14:51.485Z,98425.20
2023-03-30T01:16:27.506Z,98423.34
2023-03-30T01:18:12.424Z,98423.12
2023-03-30T01:19:57.326Z,98425.49
2023-03-30T01:21:50.451Z,98424.85
2023-03-30T01:23:39.007Z,98425.08
2023-03-30T01:25:22.391Z,98420.42
2023-03-30T01:27:07.891Z,98418.20
2023-03-30T01:28:43.653Z,98419.13
2023-03-30T01:30:05.710Z,98420.69
2023-03-30T01:31:46.203Z,98417.16
2023-03-30T01:33:31.121Z,98418.79
2023-03-30T01:35:11.008Z,98415.66
2023-03-30T01:36:37.146Z,98417.74
2023-03-30T01:38:03.975Z,98419.50
2023-03-30T01:39:51.611Z,98414.13
2023-03-30T01:41:36.878Z,98409.17
2023-03-30T01:43:17.874Z,98402.48
2023-03-30T01:44:53.997Z,98399.14
2023-03-30T01:46:42.197Z,98404.95
2023-03-30T01:48:18.628Z,98400.02
2023-03-30T01:49:48.427Z,98400.23
2023-03-30T01:51:23.852Z,98397.72
2023-03-30T01:52:58.494Z,98397.36
2023-03-30T01:54:34.081Z,98394.52
2023-03-30T01:56:10.186Z,98389.33
2023-03-30T01:57:55.622Z,98383.63
2023-03-30T01:59:27.294Z,98388.09
2023-03-30T02:01:04.272Z,98385.77
2023-03-30T02:02:50.463Z,98387.69
2023-03-30T02:04:35.954Z,98390.21
2023-03-30T02:06:16.684Z,98391.27
2023-03-30T02:08:02.499Z,98391.32
2023-03-30T02:09:48.578Z,98393.48
2023-03-30T02:11:24.556Z,98392.40
2023-03-30T02:12:58.012Z,98392.36
2023-03-30T02:14:33.640Z,98389.10
2023-03-30T02:16:19.397Z,98391.73
2023-03-30T02:17:54.633Z,98388.40
2023-03-30T02:19:40.072Z,98387.27
2023-03-30T02:21:24.831Z,98385.02
2023-03-30T02:23:06.192Z,98381.52
2023-03-30T02:24:36.314Z,98380.39
2023-03-30T02:26:09.656Z,98379.88
2023-03-30T02:27:36.829Z,98379.89
2023-03-30T02:29:10.130Z,98377.55
2023-03-30T02:30:55.266Z,98371.77
2023-03-30T02:32:22.946Z,98372.30
2023-03-30T02:33:59.189Z,98376.71
2023-03-30T02:35:34.880Z,98373.70
2023-03-30T02:36:57.056Z,98375.20
2023-03-30T02:38:28.287Z,98370.57
2023-03-30T02:40:08.859Z,98370.88
2023-03-30T02:41:42.217Z,98367.02
2023-03-30T02:43:03.937Z,98373.58
2023-03-30T02:44:37.358Z,98368.34
2023-03-30T02:46:18.538Z,98369.94
2023-03-30T02:47:53.007Z,98367.27
2023-03-30T02:49:38.098Z,98363.65
2023-03-30T02:51:11.385Z,98364.33
2023-03-30T02:53:05.182Z,98365.22
2023-03-30T02:54:51.026Z,98364.39
2023-03-30T02:56:12.673Z,98363.49
2023-03-30T02:58:15.587Z,98364.48
2023-03-30T03:00:08.772Z,98357.58
2023-03-30T03:01:42.867Z,98351.25
2023-03-30T03:03:21.805Z,98347.69
2023-03-30T03:04:59.152Z,98351.40
2023-03-30T03:06:55.746Z,98343.06
2023-03-30T03:08:29.085Z,98344.63
2023-03-30T03:10:13.945Z,98342.36
2023-03-30T03:11:59.050Z,98337.93
2023-03-30T03:13:48.644Z,98336.82
2023-03-30T03:15:22.408Z,98335.35
2023-03-30T03:17:28.750Z,98337.68
2023-03-30T03:19:04.578Z,98333.61
2023-03-30T03:20:50.396Z,98337.88
2023-03-30T03:22:38.329Z,98334.14
2023-03-30T03:24:19.800Z,98332.79
2023-03-30T03:26:28.929Z,98330.18
2023-03-30T03:28:04.790Z,98325.98
2023-03-30T03:29:48.716Z,98320.81
2023-03-30T03:31:22.107Z,98316.02
2023-03-30T03:32:57.672Z,98313.66
2023-03-30T03:34:33.675Z,98310.58
2023-03-30T03:36:22.620Z,98310.90
2023-03-30T03:38:11.676Z,98305.27
2023-03-30T03:39:56.837Z,98306.48
2023-03-30T03:41:50.398Z,98304.20
2023-03-30T03:43:26.550Z,98303.60
2023-03-30T03:45:15.864Z,98301.00
2023-03-30T03:47:02.605Z,98302.84
2023-03-30T03:48:24.745Z,98299.11
2023-03-30T03:50:09.852Z,98297.24
2023-03-30T03:51:46.739Z,98293.04
2023-03-30T03:53:27.758Z,98293.42
2023-03-30T03:55:04.659Z,98288.39
2023-03-30T03:56:49.954Z,98287.26
2023-03-30T03:58:20.970Z,98288.90
2023-03-30T03:59:51.061Z,98288.11
2023-03-30T04:01:35.810Z,98283.00
2023-03-30T04:03:05.457Z,98284.76
2023-03-30T04:04:50.263Z,98279.73
2023-03-30T04:06:30.796Z,98279.98
2023-03-30T04:08:04.534Z,98272.27
2023-03-30T04:09:30.917Z,98283.62
2023-03-30T04:11:23.433Z,98283.80
2023-03-30T04:13:08.733Z,98286.30
2023-03-30T04:15:23.596Z,98276.12
2023-03-30T04:17:15.501Z,98276.47
2023-03-30T04:19:27.887Z,98273.22
2023-03-30T04:21:25.231Z,98271.38
2023-03-30T04:22:50.123Z,98272.84
2023-03-30T04:24:55.225Z,98267.27
2023-03-30T04:26:43.824Z,98263.60
2023-03-30T04:28:36.285Z,98261.80
2023-03-30T04:30:47.902Z,98252.54
2023-03-30T04:32:34.660Z,98257.94
2023-03-30T04:34:40.838Z,98254.10
2023-03-30T04:36:23.214Z,98250.70
2023-03-30T04:38:02.597Z,98248.23
2023-03-30T04:39:41.671Z,98245.59
2023-03-30T04:41:53.863Z,98244.98
2023-03-30T04:43:55.176Z,98243.96
2023-03-30T04:45:53.924Z,98238.22
2023-03-30T04:47:50.271Z,98237.84
2023-03-30T04:49:38.831Z,98235.23
2023-03-30T04:52:06.657Z,98230.32
2023-03-30T04:53:46.921Z,98232.67
2023-03-30T04:56:07.476Z,98228.65
2023-03-30T04:57:41.767Z,98231.23
2023-03-30T05:00:05.701Z,98228.73
2023-03-30T05:02:11.660Z,98225.91
2023-03-30T05:03:45.156Z,98225.38
2023-03-30T05:05:35.201Z,98224.30
2023-03-30T05:07:33.897Z,98225.02
2023-03-30T05:09:18.170Z,98218.58
2023-03-30T05:11:14.877Z,98224.87
2023-03-30T05:13:16.038Z,98221.63
2023-03-30T05:15:09.770Z,98224.33
2023-03-30T05:17:04.448Z,98222.83
2023-03-30T05:18:33.396Z,98223.58
2023-03-30T05:20:52.948Z,98220.27
2023-03-30T05:22:40.776Z,98221.39
2023-03-30T05:24:48.480Z,98220.06
2023-03-30T05:26:47.371Z,98223.73
2023-03-30T05:28:54.086Z,98218.63
2023-03-30T05:31:08.803Z,98222.63
2023-03-30T05:33:15.014Z,98221.16
2023-03-30T05:35:15.084Z,98224.48
2023-03-30T05:37:00.042Z,98222.31
2023-03-30T05:38:51.507Z,98222.38
2023-03-30T05:41:19.272Z,98222.76
2023-03-30T05:42:56.633Z,98226.52
2023-03-30T05:44:42.348Z,98228.87
2023-03-30T05:46:35.779Z,98228.46
2023-03-30T05:48:29.077Z,98229.70
2023-03-30T05:50:46.629Z,98229.07
2023-03-30T05:52:40.384Z,98229.70
2023-03-30T05:55:10.537Z,98226.84
2023-03-30T05:57:25.647Z,98227.91
2023-03-30T05:59:13.544Z,98225.30
2023-03-30T06:01:19.316Z,98226.70
2023-03-30T06:02:55.374Z,98228.23
2023-03-30T06:04:32.579Z,98222.91
2023-03-30T06:06:06.144Z,98222.81
2023-03-30T06:08:00.205Z,98217.00
2023-03-30T06:09:26.645Z,98215.69
2023-03-30T06:11:08.640Z,98214.02
2023-03-30T06:12:41.101Z,98214.73
2023-03-30T06:14:22.052Z,98211.59
2023-03-30T06:16:06.725Z,98206.29
2023-03-30T06:17:35.675Z,98209.45
2023-03-30T06:19:20.767Z,98211.38
2023-03-30T06:20:57.471Z,98210.41
2023-03-30T06:22:31.955Z,98210.63
2023-03-30T06:24:36.574Z,98213.21
2023-03-30T06:26:11.197Z,98214.58
2023-03-30T06:27:59.833Z,98212.14
2023-03-30T06:29:33.179Z,98209.77
2023-03-30T06:31:02.707Z,98203.28
2023-03-30T06:32:38.770Z,98206.88
2023-03-30T06:34:51.085Z,98204.70
2023-03-30T06:36:45.267Z,98207.90
2023-03-30T06:38:21.404Z,98206.45
2023-03-30T06:39:59.142Z,98208.11
2023-03-30T06:41:24.071Z,98202.25
2023-03-30T06:42:57.056Z,98205.15
2023-03-30T06:44:34.969Z,98206.44
2023-03-30T06:46:21.152Z,98206.70
2023-03-30T06:47:54.259Z,98204.56
2023-03-30T06:49:31.215Z,98204.60
2023-03-30T06:51:13.003Z,98204.14
2023-03-30T06:52:49.191Z,98203.94
2023-03-30T06:54:23.432Z,98201.00
2023-03-30T06:55:56.804Z,98193.69
2023-03-30T06:57:37.818Z,98186.98
2023-03-30T06:59:34.320Z,98185.81
2023-03-30T07:01:27.190Z,98186.33
2023-03-30T07:03:23.116Z,98181.73
2023-03-30T07:05:11.624Z,98183.17
2023-03-30T07:07:05.563Z,98174.33
2023-03-30T07:08:46.482Z,98175.30
2023-03-30T07:10:33.463Z,98177.77
2023-03-30T07:12:19.906Z,98178.23
2023-03-30T07:14:05.444Z,98179.52
2023-03-30T07:15:50.723Z,98180.86
2023-03-30T07:17:38.361Z,98178.88
2023-03-30T07:19:11.853Z,98178.82
2023-03-30T07:20:47.983Z,98175.50
2023-03-30T07:22:23.138Z,98174.30
2023-03-30T07:24:08.410Z,98176.30
2023-03-30T07:25:54.355Z,98175.70
2023-03-30T07:27:50.086Z,98174.27
2023-03-30T07:29:36.949Z,98157.84
2023-03-30T07:31:22.803Z,98169.90
2023-03-30T07:32:52.093Z,98169.10
2023-03-30T07:34:13.696Z,98169.41
2023-03-30T07:36:03.547Z,98166.87
2023-03-30T07:37:39.465Z,98172.55
2023-03-30T07:39:24.375Z,98163.19
2023-03-30T07:40:58.402Z,98165.70
2023-03-30T07:42:42.042Z,98166.20
2023-03-30T07:44:17.783Z,98160.61
2023-03-30T07:46:03.111Z,98157.52
2023-03-30T07:47:41.066Z,98158.13
2023-03-30T07:49:16.716Z,98154.77
2023-03-30T07:50:52.623Z,98148.30
2023-03-30T07:52:38.916Z,98147.41
2023-03-30T07:54:13.738Z,98148.43
2023-03-30T07:55:47.564Z,98147.42
2023-03-30T07:57:39.458Z,98145.11
2023-03-30T07:59:13.601Z,98140.17
2023-03-30T08:00:54.638Z,98136.52
2023-03-30T08:02:43.271Z,98140.09
2023-03-30T08:04:19.111Z,98138.58
2023-03-30T08:05:55.355Z,98137.72
2023-03-30T08:07:17.843Z,98139.08
2023-03-30T08:08:51.077Z,98136.20
2023-03-30T08:10:13.571Z,98130.61
2023-03-30T08:11:37.561Z,98130.21
2023-03-30T08:13:01.629Z,98131.02
2023-03-30T08:14:30.732Z,98130.88
2023-03-30T08:16:11.657Z,98126.60
2023-03-30T08:17:33.733Z,98125.74
2023-03-30T08:18:55.782Z,98120.50
2023-03-30T08:20:22.555Z,98119.13
2023-03-30T08:21:51.554Z,98121.42
2023-03-30T08:23:24.674Z,98116.45
2023-03-30T08:24:57.202Z,98118.88
2023-03-30T08:26:30.922Z,98123.02
2023-03-30T08:28:11.947Z,98115.44
2023-03-30T08:29:56.336Z,98113.35
2023-03-30T08:31:32.861Z,98116.55
2023-03-30T08:33:17.768Z,98116.37
2023-03-30T08:35:03.291Z,98115.17
2023-03-30T08:36:39.016Z,98114.77
2023-03-30T08:38:08.213Z,98119.51
2023-03-30T08:39:41.704Z,98120.94
2023-03-30T08:41:22.332Z,98119.29
2023-03-30T08:42:57.840Z,98117.73
2023-03-30T08:44:31.134Z,98115.47
2023-03-30T08:46:06.387Z,98120.90
2023-03-30T08:47:31.183Z,98120.02
2023-03-30T08:49:02.537Z,98118.35
2023-03-30T08:50:35.897Z,98122.81
2023-03-30T08:52:09.182Z,98129.22
2023-03-30T08:53:45.136Z,98122.64
2023-03-30T08:55:38.669Z,98123.39
2023-03-30T08:57:24.004Z,98122.40
2023-03-30T08:58:57.543Z,98123.72
2023-03-30T09:00:32.197Z,98119.17
2023-03-30T09:01:53.783Z,98118.20
2023-03-30T09:03:29.890Z,98116.27
2023-03-30T09:05:06.217Z,98111.50
2023-03-30T09:06:46.985Z,98110.48
2023-03-30T09:08:40.551Z,98112.17
2023-03-30T09:10:35.411Z,98113.43
2023-03-30T09:12:08.654Z,98113.73
2023-03-30T09:13:54.848Z,98082.52
2023-03-30T09:15:24.000Z,98102.55
2023-03-30T09:17:17.757Z,98094.75
2023-03-30T09:18:51.017Z,98089.73
2023-03-30T09:20:27.817Z,98086.52
2023-03-30T09:22:12.802Z,98084.09
2023-03-30T09:23:35.985Z,98071.73
2023-03-30T09:25:21.543Z,98065.50
2023-03-30T09:26:54.916Z,98059.37
2023-03-30T09:28:21.296Z,98060.59
2023-03-30T09:29:55.790Z,98057.05
2023-03-30T09:31:41.035Z,98051.96
2023-03-30T09:33:10.382Z,98053.69
2023-03-30T09:34:55.422Z,98049.66
2023-03-30T09:36:44.299Z,98050.56
2023-03-30T09:38:21.489Z,98043.16
2023-03-30T09:40:02.599Z,98044.63
2023-03-30T09:41:45.376Z,98047.15
2023-03-30T09:43:30.484Z,98050.38
2023-03-30T09:45:15.496Z,98047.64
2023-03-30T09:46:49.988Z,98040.14
2023-03-30T09:48:23.545Z,98040.35
2023-03-30T09:49:57.158Z,98036.21
2023-03-30T09:51:31.518Z,98032.08
2023-03-30T09:52:53.699Z,98031.73
2023-03-30T09:54:39.128Z,98024.30
2023-03-30T09:56:13.068Z,98016.10
2023-03-30T09:57:44.687Z,98012.31
2023-03-30T09:59:18.201Z,98011.23
2023-03-30T10:00:59.147Z,98010.34
2023-03-30T10:02:40.718Z,98004.08
2023-03-30T10:04:16.215Z,97999.97
2023-03-30T10:05:49.998Z,97998.20
2023-03-30T10:07:18.868Z,97995.70
2023-03-30T10:09:13.401Z,97996.30
2023-03-30T10:10:48.848Z,97997.77
2023-03-30T10:12:24.874Z,97995.75
2023-03-30T10:14:10.210Z,97998.11
2023-03-30T10:15:46.089Z,97996.85
2023-03-30T10:17:31.018Z,97993.11
2023-03-30T10:18:55.710Z,97993.76
2023-03-30T10:20:41.408Z,97985.33
2023-03-30T10:22:28.153Z,97980.94
2023-03-30T10:24:12.768Z,97974.01
2023-03-30T10:25:48.735Z,97972.05
2023-03-30T10:27:37.391Z,97972.32
2023-03-30T10:29:18.119Z,97969.23
2023-03-30T10:31:11.490Z,97969.11
2023-03-30T10:32:56.572Z,97964.92
2023-03-30T10:34:48.886Z,97959.31
2023-03-30T10:36:11.340Z,97956.53
2023-03-30T10:37:52.118Z,97956.25
2023-03-30T10:39:23.402Z,97951.21
2023-03-30T10:41:12.410Z,97946.31
2023-03-30T10:42:33.887Z,97948.97
2023-03-30T10:44:07.181Z,97941.98
2023-03-30T10:45:36.557Z,97942.84
2023-03-30T10:47:12.265Z,97934.50
2023-03-30T10:48:55.407Z,97918.15
2023-03-30T10:50:28.791Z,97923.73
2023-03-30T10:52:14.054Z,97917.23
2023-03-30T10:54:08.512Z,97917.63
2023-03-30T10:55:44.112Z,97924.64
2023-03-30T10:57:18.069Z,97922.56
2023-03-30T10:59:03.241Z,97928.64
2023-03-30T11:00:46.611Z,97928.61
2023-03-30T11:02:08.705Z,97930.57
2023-03-30T11:03:37.808Z,97935.87
2023-03-30T11:05:01.937Z,97939.23
2023-03-30T11:06:55.419Z,97929.21
2023-03-30T11:08:35.998Z,97923.59
2023-03-30T11:10:17.565Z,97917.04
2023-03-30T11:11:51.122Z,97920.55
2023-03-30T11:13:25.087Z,97917.84
2023-03-30T11:15:17.999Z,97927.40
2023-03-30T11:16:58.662Z,97922.82
2023-03-30T11:18:32.619Z,97923.89
2023-03-30T11:20:07.051Z,97920.77
2023-03-30T11:21:42.890Z,97922.11
2023-03-30T11:23:28.393Z,97920.82
2023-03-30T11:24:52.040Z,97916.99
2023-03-30T11:26:16.742Z,97916.64
2023-03-30T11:27:50.367Z,97917.14
2023-03-30T11:29:24.226Z,97918.87
2023-03-30T11:31:09.724Z,97920.54
2023-03-30T11:32:52.616Z,97913.39
2023-03-30T11:34:14.121Z,97915.29
2023-03-30T11:35:47.146Z,97911.29
2023-03-30T11:37:21.000Z,97910.64
2023-03-30T11:38:56.535Z,97909.18
2023-03-30T11:40:29.562Z,97906.20
2023-03-30T11:42:10.919Z,97902.29
2023-03-30T11:43:55.991Z,97896.88
2023-03-30T11:45:49.393Z,97897.19
2023-03-30T11:47:13.869Z,97899.22
2023-03-30T11:49:04.935Z,97898.27
2023-03-30T11:50:29.834Z,97892.04
2023-03-30T11:51:52.654Z,97884.80
2023-03-30T11:53:28.114Z,97888.58
2023-03-30T11:55:03.669Z,97885.30
2023-03-30T11:56:38.672Z,97887.40
2023-03-30T11:58:23.678Z,97880.69
2023-03-30T12:00:09.471Z,97879.77
2023-03-30T12:01:45.561Z,97877.18
2023-03-30T12:03:21.513Z,97880.84
2023-03-30T12:04:55.126Z,97873.73
2023-03-30T12:06:17.281Z,97875.25
2023-03-30T12:07:50.821Z,97877.71
2023-03-30T12:09:26.739Z,97874.80
2023-03-30T12:10:57.996Z,97874.56
2023-03-30T12:12:42.225Z,97870.02
2023-03-30T12:14:22.784Z,97872.30
2023-03-30T12:15:55.836Z,97868.79
2023-03-30T12:17:42.029Z,97867.33
2023-03-30T12:19:27.458Z,97866.20
2023-03-30T12:21:00.914Z,97861.01
2023-03-30T12:22:34.864Z,97861.88
2023-03-30T12:24:15.644Z,97857.56
2023-03-30T12:25:56.432Z,97864.98
2023-03-30T12:27:37.291Z,97865.58
2023-03-30T12:30:49.957Z,97861.02
2023-03-30T12:32:13.837Z,97862.45
2023-03-30T12:33:47.148Z,97844.02
2023-03-30T12:35:28.170Z,97849.02
2023-03-30T12:37:09.941Z,97844.64
2023-03-30T12:38:55.360Z,97840.52
2023-03-30T12:40:24.475Z,97842.17
2023-03-30T12:41:48.729Z,97836.59
2023-03-30T12:43:22.021Z,97831.62
2023-03-30T12:44:55.477Z,97821.31
2023-03-30T12:46:37.548Z,97836.70
2023-03-30T12:48:22.718Z,97839.48
2023-03-30T12:49:46.947Z,97841.36
2023-03-30T12:51:10.943Z,97836.33
2023-03-30T12:52:32.905Z,97835.53
2023-03-30T12:54:09.012Z,97840.61
2023-03-30T12:56:02.723Z,97837.53
2023-03-30T12:57:27.055Z,97834.55
2023-03-30T12:59:00.682Z,97829.79
2023-03-30T13:00:53.846Z,97830.50
2023-03-30T13:02:23.027Z,97831.70
2023-03-30T13:03:57.833Z,97826.19
2023-03-30T13:05:19.910Z,97822.44
2023-03-30T13:06:53.314Z,97818.15
2023-03-30T13:08:29.384Z,97819.31
2023-03-30T13:09:51.427Z,97813.67
2023-03-30T13:11:13.405Z,97816.19
2023-03-30T13:12:37.900Z,97816.97
2023-03-30T13:14:02.160Z,97803.61
2023-03-30T13:15:23.942Z,97799.04
2023-03-30T13:16:45.762Z,97806.89
2023-03-30T13:18:21.874Z,97808.80
2023-03-30T13:20:02.651Z,97807.31
2023-03-30T13:21:36.301Z,97809.68
2023-03-30T13:23:15.060Z,97806.02
2023-03-30T13:24:51.186Z,97800.42
2023-03-30T13:26:35.469Z,97800.00
2023-03-30T13:28:20.753Z,97795.58
2023-03-30T13:29:42.174Z,97793.79
2023-03-30T13:31:26.983Z,97790.69
2023-03-30T13:32:50.619Z,97794.12
2023-03-30T13:34:24.303Z,97789.13
2023-03-30T13:35:48.035Z,97787.74
2023-03-30T13:37:10.140Z,97793.25
2023-03-30T13:38:51.628Z,97789.09
2023-03-30T13:40:37.950Z,97784.74
2023-03-30T13:42:15.447Z,97783.17
2023-03-30T13:43:50.372Z,97782.23
2023-03-30T13:45:24.179Z,97786.89
2023-03-30T13:46:59.711Z,97787.47
2023-03-30T13:48:52.957Z,97785.61
2023-03-30T13:50:26.836Z,97785.27
2023-03-30T13:52:02.088Z,97786.22
2023-03-30T13:53:28.445Z,97788.56
2023-03-30T13:54:57.928Z,97790.78
2023-03-30T13:56:22.003Z,97790.82
2023-03-30T13:57:44.705Z,97789.70
2023-03-30T13:59:06.632Z,97788.51
2023-03-30T14:00:48.644Z,97794.91
2023-03-30T14:02:12.789Z,97797.38
2023-03-30T14:03:54.080Z,97804.80
2023-03-30T14:05:16.034Z,97810.04
2023-03-30T14:06:51.588Z,97796.44
2023-03-30T14:08:15.503Z,97796.79
2023-03-30T14:10:00.488Z,97802.80
2023-03-30T14:11:33.970Z,97795.79
2023-03-30T14:12:55.629Z,97799.83
2023-03-30T14:14:41.760Z,97797.35
2023-03-30T14:16:03.888Z,97800.23
2023-03-30T14:17:28.595Z,97796.19
2023-03-30T14:18:50.640Z,97791.19
2023-03-30T14:20:20.061Z,97786.16
2023-03-30T14:22:05.246Z,97787.83
2023-03-30T14:23:32.609Z,97789.23
2023-03-30T14:24:56.759Z,97789.36
2023-03-30T14:26:20.697Z,97789.11
2023-03-30T14:27:44.655Z,97784.80
2023-03-30T14:29:11.297Z,97769.57
2023-03-30T14:30:34.995Z,97783.10
2023-03-30T14:32:07.400Z,97785.55
2023-03-30T14:33:42.851Z,97781.08
2023-03-30T14:35:12.375Z,97782.73
2023-03-30T14:36:33.792Z,97781.65
2023-03-30T14:37:57.178Z,97779.27
2023-03-30T14:39:44.439Z,97774.58
2023-03-30T14:41:17.941Z,97777.58
2023-03-30T14:43:02.710Z,97773.54
2023-03-30T14:44:52.188Z,97768.01
2023-03-30T14:46:26.238Z,97766.72
2023-03-30T14:48:07.978Z,97764.98
2023-03-30T14:49:30.278Z,97760.88
2023-03-30T14:50:54.156Z,97756.52
2023-03-30T14:52:30.021Z,97755.95
2023-03-30T14:53:59.015Z,97748.95
2023-03-30T14:55:32.786Z,97743.61
2023-03-30T14:57:02.108Z,97742.03
2023-03-30T14:58:35.552Z,97735.96
2023-03-30T14:59:57.273Z,97737.60
2023-03-30T15:01:23.574Z,97732.77
2023-03-30T15:02:45.533Z,97734.14
2023-03-30T15:04:08.011Z,97732.41
2023-03-30T15:05:30.077Z,97731.09
2023-03-30T15:07:14.825Z,97725.08
2023-03-30T15:08:53.400Z,97720.23
2023-03-30T15:10:15.315Z,97715.70
2023-03-30T15:11:36.885Z,97716.92
2023-03-30T15:12:58.722Z,97711.14
2023-03-30T15:14:20.947Z,97709.19
2023-03-30T15:16:03.484Z,97707.88
2023-03-30T15:17:28.198Z,97708.27
2023-03-30T15:19:13.353Z,97702.59
2023-03-30T15:20:46.606Z,97707.77
2023-03-30T15:22:22.319Z,97700.66
2023-03-30T15:23:58.516Z,97699.90
2023-03-30T15:25:51.788Z,97696.75
2023-03-30T15:27:37.107Z,97691.80
2023-03-30T15:29:06.157Z,97684.79
2023-03-30T15:30:51.213Z,97684.56
2023-03-30T15:32:36.728Z,97684.81
2023-03-30T15:34:12.097Z,97683.41
2023-03-30T15:35:58.060Z,97677.94
2023-03-30T15:37:52.621Z,97678.41
2023-03-30T15:39:46.196Z,97666.98
2023-03-30T15:41:31.522Z,97667.55
2023-03-30T15:43:16.330Z,97659.54
2023-03-30T15:44:50.645Z,97656.80
2023-03-30T15:46:40.891Z,97656.63
2023-03-30T15:48:16.719Z,97657.23
2023-03-30T15:49:50.597Z,97650.98
2023-03-30T15:51:36.142Z,97656.67
2023-03-30T15:53:09.813Z,97652.77
2023-03-30T15:54:50.513Z,97646.96
2023-03-30T15:56:32.018Z,97647.48
2023-03-30T15:58:03.969Z,97647.44
2023-03-30T15:59:49.293Z,97648.82
2023-03-30T16:01:28.000Z,97646.02
2023-03-30T16:03:02.049Z,97648.99
2023-03-30T16:04:36.095Z,97644.73
2023-03-30T16:06:12.080Z,97641.38
2023-03-30T16:07:38.556Z,97635.09
2023-03-30T16:09:23.068Z,97631.83
2023-03-30T16:11:04.058Z,97629.77
2023-03-30T16:12:57.545Z,97630.25
2023-03-30T16:14:30.940Z,97629.83
2023-03-30T16:16:16.179Z,97626.73
2023-03-30T16:17:57.010Z,97627.34
2023-03-30T16:19:38.655Z,97621.55
2023-03-30T16:21:24.376Z,97622.17
2023-03-30T16:23:09.721Z,97619.00
2023-03-30T16:24:43.214Z,97613.84
2023-03-30T16:26:16.887Z,97611.00
2023-03-30T16:28:11.591Z,97606.61
2023-03-30T16:29:33.260Z,97608.64
2023-03-30T16:31:06.927Z,97608.79
2023-03-30T16:32:40.431Z,97608.05
2023-03-30T16:34:01.798Z,97609.77
2023-03-30T16:35:42.259Z,97613.95
2023-03-30T16:37:11.815Z,97610.45
2023-03-30T16:38:47.168Z,97612.54
2023-03-30T16:40:21.012Z,97610.52
2023-03-30T16:41:55.049Z,97608.05
2023-03-30T16:43:25.214Z,97613.25
2023-03-30T16:44:46.793Z,97614.14
2023-03-30T16:46:20.403Z,97611.98
2023-03-30T16:47:42.811Z,97608.09
2023-03-30T16:49:17.038Z,97607.16
2023-03-30T16:51:02.887Z,97604.74
2023-03-30T16:52:35.077Z,97608.44
2023-03-30T16:54:30.335Z,97608.73
2023-03-30T16:55:57.961Z,97613.48
2023-03-30T16:57:20.052Z,97613.55
2023-03-30T16:58:51.559Z,97609.84
2023-03-30T17:00:36.964Z,97607.72
2023-03-30T17:02:08.459Z,97601.34
2023-03-30T17:03:32.837Z,97597.45
2023-03-30T17:05:17.960Z,97604.73
2023-03-30T17:06:39.878Z,97602.66
2023-03-30T17:08:13.039Z,97601.52
2023-03-30T17:09:37.629Z,97605.43
2023-03-30T17:11:13.327Z,97600.89
2023-03-30T17:12:59.565Z,97602.80
2023-03-30T17:14:53.453Z,97598.77
2023-03-30T17:16:29.371Z,97594.58
2023-03-30T17:18:14.454Z,97597.30
2023-03-30T17:19:59.490Z,97600.04
2023-03-30T17:23:42.835Z,97583.92
2023-03-30T17:25:28.444Z,97585.46
2023-03-30T17:27:13.387Z,97585.89
2023-03-30T17:28:42.089Z,97582.46
2023-03-30T17:30:16.039Z,97585.78
2023-03-30T17:31:56.913Z,97580.67
2023-03-30T17:33:19.263Z,97573.79
2023-03-30T17:34:59.828Z,97575.38
2023-03-30T17:36:21.789Z,97583.66
2023-03-30T17:38:07.899Z,97589.77
2023-03-30T17:39:57.473Z,97597.39
2023-03-30T17:41:46.472Z,97597.70
2023-03-30T17:43:20.371Z,97589.91
2023-03-30T17:45:05.195Z,97591.07
2023-03-30T17:46:39.069Z,97589.42
2023-03-30T17:48:08.405Z,97593.98
2023-03-30T17:49:42.004Z,97591.48
2023-03-30T17:51:31.583Z,97594.06
2023-03-30T17:53:17.009Z,97594.17
2023-03-30T17:55:11.538Z,97592.22
2023-03-30T17:56:53.679Z,97590.39
2023-03-30T17:58:29.172Z,97585.49
2023-03-30T18:00:14.437Z,97585.23
2023-03-30T18:01:55.855Z,97587.25
2023-03-30T18:03:41.677Z,97587.36
2023-03-30T18:05:23.238Z,97588.85
2023-03-30T18:07:16.629Z,97587.02
2023-03-30T18:08:59.469Z,97588.85
2023-03-30T18:10:53.467Z,97589.35
2023-03-30T18:12:23.174Z,97595.53
2023-03-30T18:14:13.459Z,97591.53
2023-03-30T18:15:43.389Z,97595.58
2023-03-30T18:17:17.061Z,97594.00
2023-03-30T18:18:45.522Z,97593.37
2023-03-30T18:20:19.196Z,97596.31
2023-03-30T18:21:53.235Z,97589.98
2023-03-30T18:23:26.980Z,97592.52
2023-03-30T18:24:50.718Z,97592.64
2023-03-30T18:26:35.800Z,97592.69
2023-03-30T18:28:08.004Z,97596.83
2023-03-30T18:29:33.843Z,97602.77
2023-03-30T18:31:03.218Z,97604.65
2023-03-30T18:32:46.563Z,97610.45
2023-03-30T18:34:30.330Z,97611.08
2023-03-30T18:36:13.293Z,97615.05
2023-03-30T18:37:43.246Z,97618.11
2023-03-30T18:39:30.240Z,97617.55
2023-03-30T18:41:05.193Z,97614.92
2023-03-30T18:42:58.608Z,97619.08
2023-03-30T18:44:28.189Z,97617.74
2023-03-30T18:45:51.953Z,97614.90
2023-03-30T18:47:13.741Z,97612.80
2023-03-30T18:49:07.557Z,97615.73
2023-03-30T18:50:53.257Z,97615.30
2023-03-30T18:52:34.880Z,97621.24
2023-03-30T18:54:04.108Z,97613.85
2023-03-30T18:55:28.293Z,97621.73
2023-03-30T18:56:52.362Z,97624.64
2023-03-30T18:58:26.365Z,97622.22
2023-03-30T19:00:02.689Z,97623.20
2023-03-30T19:01:25.510Z,97625.92
2023-03-30T19:03:14.300Z,97624.73
2023-03-30T19:05:08.557Z,97623.25
2023-03-30T19:06:38.194Z,97618.81
2023-03-30T19:08:07.322Z,97620.41
2023-03-30T19:09:50.510Z,97619.09
2023-03-30T19:11:20.156Z,97617.55
2023-03-30T19:12:54.856Z,97614.34
2023-03-30T19:14:29.028Z,97614.73
2023-03-30T19:16:05.994Z,97610.81
2023-03-30T19:17:31.013Z,97608.23
2023-03-30T19:19:15.824Z,97609.14
2023-03-30T19:21:05.674Z,97604.73
2023-03-30T19:22:37.587Z,97605.03
2023-03-30T19:24:13.853Z,97610.80
2023-03-30T19:25:42.831Z,97608.05
2023-03-30T19:27:07.658Z,97608.57